createdAt,value
2022-11-25T00:01:17.344Z,98166.28
2022-11-25T00:03:46.519Z,98173.69
2022-11-25T00:06:16.913Z,98173.78
2022-11-25T00:08:46.149Z,98168.38
2022-11-25T00:11:15.336Z,98165.59
2022-11-25T00:13:44.268Z,98171.47
2022-11-25T00:16:15.782Z,98164.09
2022-11-25T00:18:45.838Z,98168.88
2022-11-25T00:21:15.930Z,98166.69
2022-11-25T00:23:43.999Z,98169.19
2022-11-25T00:26:13.165Z,98163.28
2022-11-25T00:28:42.769Z,98168.38
2022-11-25T00:31:13.921Z,98162.50
2022-11-25T00:33:42.615Z,98165.19
2022-11-25T00:36:16.644Z,98167.88
2022-11-25T00:38:44.750Z,98167.88
2022-11-25T00:41:29.913Z,98166.72
2022-11-25T00:44:15.297Z,98165.28
2022-11-25T00:46:44.563Z,98166.28
2022-11-25T00:49:12.269Z,98165.50
2022-11-25T00:51:39.921Z,98175.00
2022-11-25T00:54:07.873Z,98174.69
2022-11-25T00:56:35.530Z,98179.78
2022-11-25T00:59:03.262Z,98178.69
2022-11-25T01:01:30.995Z,98179.72
2022-11-25T01:04:00.320Z,98184.94
2022-11-25T01:06:28.234Z,98182.13
2022-11-25T01:08:56.177Z,98170.13
2022-11-25T01:11:24.963Z,98176.94
2022-11-25T01:14:00.651Z,98174.06
2022-11-25T01:16:29.866Z,98172.72
2022-11-25T01:18:58.965Z,98174.72
2022-11-25T01:21:29.886Z,98173.13
2022-11-25T01:23:59.590Z,98182.06
2022-11-25T01:26:27.644Z,98178.75
2022-11-25T01:28:57.519Z,98184.75
2022-11-25T01:31:27.288Z,98177.84
2022-11-25T01:33:57.639Z,98174.94
2022-11-25T01:36:26.275Z,98180.75
2022-11-25T01:38:57.026Z,98184.56
2022-11-25T01:41:27.393Z,98180.34
2022-11-25T01:44:10.078Z,98176.34
2022-11-25T01:46:55.749Z,98176.56
2022-11-25T01:49:30.389Z,98175.16
2022-11-25T01:52:04.082Z,98169.06
2022-11-25T01:54:38.595Z,98161.66
2022-11-25T01:57:12.690Z,98169.19
2022-11-25T01:59:44.871Z,98172.19
2022-11-25T02:02:13.349Z,98171.38
2022-11-25T02:04:42.951Z,98173.16
2022-11-25T02:07:16.020Z,98166.16
2022-11-25T02:09:46.833Z,98169.56
2022-11-25T02:12:16.457Z,98179.34
2022-11-25T02:14:44.559Z,98174.97
2022-11-25T02:17:12.521Z,98177.75
2022-11-25T02:19:53.516Z,98184.81
2022-11-25T02:22:27.924Z,98179.13
2022-11-25T02:25:01.977Z,98176.94
2022-11-25T02:27:31.150Z,98183.72
2022-11-25T02:29:58.823Z,98183.94
2022-11-25T02:32:26.458Z,98183.94
2022-11-25T02:34:54.168Z,98184.94
2022-11-25T02:37:24.347Z,98182.03
2022-11-25T02:39:53.387Z,98174.16
2022-11-25T02:42:23.646Z,98173.13
2022-11-25T02:44:52.752Z,98169.94
2022-11-25T02:47:20.385Z,98172.50
2022-11-25T02:49:47.994Z,98167.31
2022-11-25T02:52:16.479Z,98169.50
2022-11-25T02:54:44.136Z,98165.72
2022-11-25T02:57:11.715Z,98174.31
2022-11-25T02:59:39.393Z,98173.31
2022-11-25T03:02:08.419Z,98175.91
2022-11-25T03:04:36.427Z,98172.56
2022-11-25T03:07:04.224Z,98175.13
2022-11-25T03:09:31.903Z,98173.72
2022-11-25T03:12:16.991Z,98183.72
2022-11-25T03:14:44.629Z,98182.69
2022-11-25T03:17:13.629Z,98184.72
2022-11-25T03:19:41.519Z,98178.28
2022-11-25T03:22:09.190Z,98184.72
2022-11-25T03:24:37.088Z,98182.25
2022-11-25T03:27:05.234Z,98183.38
2022-11-25T03:29:33.027Z,98184.25
2022-11-25T03:32:02.477Z,98178.63
2022-11-25T03:34:34.667Z,98174.84
2022-11-25T03:37:02.422Z,98184.94
2022-11-25T03:39:30.159Z,98193.72
2022-11-25T03:41:57.812Z,98184.63
2022-11-25T03:44:25.468Z,98186.72
2022-11-25T03:46:53.146Z,98184.69
2022-11-25T03:49:21.812Z,98191.97
2022-11-25T03:51:51.111Z,98190.19
2022-11-25T03:54:18.912Z,98190.41
2022-11-25T03:56:46.635Z,98191.78
2022-11-25T03:59:14.381Z,98187.38
2022-11-25T04:01:44.468Z,98185.81
2022-11-25T04:04:12.534Z,98185.69
2022-11-25T04:06:40.215Z,98180.41
2022-11-25T04:09:11.941Z,98188.56
2022-11-25T04:11:57.274Z,98182.38
2022-11-25T04:14:24.973Z,98179.75
2022-11-25T04:16:52.712Z,98177.25
2022-11-25T04:19:20.373Z,98183.56
2022-11-25T04:21:52.340Z,98182.91
2022-11-25T04:24:22.226Z,98185.75
2022-11-25T04:26:50.169Z,98179.63
2022-11-25T04:29:17.886Z,98171.19
2022-11-25T04:31:45.810Z,98172.72
2022-11-25T04:34:13.627Z,98170.47
2022-11-25T04:36:41.350Z,98172.72
2022-11-25T04:39:09.159Z,98178.03
2022-11-25T04:41:38.186Z,98174.25
2022-11-25T04:44:06.132Z,98166.31
2022-11-25T04:46:36.998Z,98169.00
2022-11-25T04:49:04.799Z,98178.69
2022-11-25T04:51:32.780Z,98177.25
2022-11-25T04:54:00.528Z,98181.84
2022-11-25T04:56:28.402Z,98181.38
2022-11-25T04:59:14.892Z,98185.41
2022-11-25T05:01:42.672Z,98173.59
2022-11-25T05:04:10.410Z,98175.19
2022-11-25T05:06:38.178Z,98162.41
2022-11-25T05:09:06.171Z,98162.81
2022-11-25T05:11:33.955Z,98163.28
2022-11-25T05:14:03.006Z,98171.28
2022-11-25T05:16:30.689Z,98179.06
2022-11-25T05:18:58.451Z,98181.25
2022-11-25T05:21:26.153Z,98179.94
2022-11-25T05:23:56.136Z,98178.91
2022-11-25T05:26:24.027Z,98175.66
2022-11-25T05:28:51.678Z,98178.97
2022-11-25T05:31:20.779Z,98175.78
2022-11-25T05:33:48.476Z,98165.22
2022-11-25T05:36:16.203Z,98181.03
2022-11-25T05:38:43.972Z,98178.63
2022-11-25T05:41:12.135Z,98181.25
2022-11-25T05:43:39.846Z,98180.16
2022-11-25T05:46:07.961Z,98179.06
2022-11-25T05:48:37.165Z,98188.16
2022-11-25T05:51:05.822Z,98191.13
2022-11-25T05:53:33.826Z,98190.25
2022-11-25T05:56:02.976Z,98188.31
2022-11-25T05:58:31.887Z,98188.06
2022-11-25T06:00:59.646Z,98188.53
2022-11-25T06:03:28.522Z,98183.94
2022-11-25T06:05:58.597Z,98185.31
2022-11-25T06:08:26.964Z,98179.44
2022-11-25T06:10:55.264Z,98183.00
2022-11-25T06:13:23.316Z,98178.09
2022-11-25T06:15:51.230Z,98183.84
2022-11-25T06:18:19.506Z,98167.22
2022-11-25T06:20:56.348Z,98174.56
2022-11-25T06:23:25.558Z,98178.34
2022-11-25T06:25:53.583Z,98185.53
2022-11-25T06:28:21.333Z,98185.16
2022-11-25T06:30:49.124Z,98184.25
2022-11-25T06:33:16.910Z,98195.00
2022-11-25T06:35:44.659Z,98192.22
2022-11-25T06:38:12.355Z,98204.53
2022-11-25T06:40:41.358Z,98200.97
2022-11-25T06:43:09.055Z,98207.69
2022-11-25T06:45:36.716Z,98209.69
2022-11-25T06:48:05.031Z,98207.16
2022-11-25T06:50:32.688Z,98205.78
2022-11-25T06:53:02.206Z,98209.56
2022-11-25T06:55:29.932Z,98214.94
2022-11-25T06:58:20.235Z,98228.19
2022-11-25T07:00:46.529Z,98237.19
2022-11-25T07:03:14.231Z,98228.59
2022-11-25T07:05:41.960Z,98233.25
2022-11-25T07:08:09.660Z,98236.13
2022-11-25T07:10:37.428Z,98231.78
2022-11-25T07:13:06.395Z,98237.19
2022-11-25T07:15:35.473Z,98240.38
2022-11-25T07:18:03.177Z,98236.41
2022-11-25T07:20:30.843Z,98242.31
2022-11-25T07:22:58.512Z,98235.50
2022-11-25T07:25:30.840Z,98231.03
2022-11-25T07:27:58.705Z,98228.47
2022-11-25T07:33:15.598Z,98233.50
2022-11-25T07:35:43.329Z,98244.09
2022-11-25T07:38:11.368Z,98233.72
2022-11-25T07:40:39.031Z,98242.13
2022-11-25T07:43:06.751Z,98250.31
2022-11-25T07:45:37.398Z,98246.72
2022-11-25T07:48:06.340Z,98263.13
2022-11-25T07:50:34.300Z,98260.94
2022-11-25T07:53:02.248Z,98260.94
2022-11-25T07:55:29.910Z,98269.72
2022-11-25T07:57:57.699Z,98256.50
2022-11-25T08:00:25.811Z,98266.91
2022-11-25T08:02:54.991Z,98270.53
2022-11-25T08:05:22.728Z,98273.69
2022-11-25T08:07:50.495Z,98282.03
2022-11-25T08:10:18.407Z,98276.22
2022-11-25T08:12:46.192Z,98271.41
2022-11-25T08:15:13.860Z,98280.06
2022-11-25T08:17:41.687Z,98278.13
2022-11-25T08:20:11.379Z,98272.34
2022-11-25T08:22:39.079Z,98272.53
2022-11-25T08:25:07.664Z,98276.75
2022-11-25T08:27:35.354Z,98276.63
2022-11-25T08:30:03.109Z,98269.75
2022-11-25T08:32:30.877Z,98257.91
2022-11-25T08:34:59.176Z,98262.97
2022-11-25T08:37:28.271Z,98259.13
2022-11-25T08:39:56.447Z,98269.31
2022-11-25T08:42:24.502Z,98265.66
2022-11-25T08:44:53.971Z,98265.63
2022-11-25T08:47:22.351Z,98264.50
2022-11-25T08:49:52.143Z,98278.75
2022-11-25T08:52:20.257Z,98275.06
2022-11-25T08:54:49.737Z,98281.38
2022-11-25T08:57:17.707Z,98279.53
2022-11-25T08:59:45.342Z,98279.91
2022-11-25T09:02:16.931Z,98287.09
2022-11-25T09:04:44.843Z,98288.50
2022-11-25T09:07:12.561Z,98278.09
2022-11-25T09:09:40.617Z,98286.00
2022-11-25T09:12:09.722Z,98286.13
2022-11-25T09:14:37.386Z,98285.47
2022-11-25T09:17:10.176Z,98283.06
2022-11-25T09:19:39.511Z,98283.63
2022-11-25T09:22:08.222Z,98293.03
2022-11-25T09:24:36.196Z,98295.31
2022-11-25T09:27:04.252Z,98300.84
2022-11-25T09:29:33.642Z,98302.84
2022-11-25T09:32:01.533Z,98302.47
2022-11-25T09:34:29.283Z,98300.28
2022-11-25T09:36:56.979Z,98302.47
2022-11-25T09:39:28.150Z,98294.84
2022-11-25T09:42:26.005Z,98279.94
2022-11-25T09:45:34.993Z,98273.31
2022-11-25T09:48:15.494Z,98276.41
2022-11-25T09:50:55.151Z,98286.06
2022-11-25T09:53:36.658Z,98289.88
2022-11-25T09:56:12.242Z,98286.53
2022-11-25T09:58:47.665Z,98288.13
2022-11-25T10:01:20.338Z,98291.22
2022-11-25T10:03:52.559Z,98292.50
2022-11-25T10:06:24.420Z,98287.38
2022-11-25T10:08:56.261Z,98290.69
2022-11-25T10:11:34.400Z,98282.97
2022-11-25T10:14:06.969Z,98283.50
2022-11-25T10:16:51.259Z,98288.66
2022-11-25T10:19:28.358Z,98277.50
2022-11-25T10:21:56.065Z,98274.78
2022-11-25T10:24:24.993Z,98273.28
2022-11-25T10:27:00.951Z,98277.19
2022-11-25T10:29:30.582Z,98272.22
2022-11-25T10:32:21.888Z,98264.97
2022-11-25T10:34:53.726Z,98272.34
2022-11-25T10:37:28.458Z,98266.91
2022-11-25T10:39:56.362Z,98274.88
2022-11-25T10:42:28.547Z,98280.91
2022-11-25T10:44:56.311Z,98272.94
2022-11-25T10:47:37.341Z,98270.22
2022-11-25T10:50:15.620Z,98265.16
2022-11-25T10:52:52.310Z,98266.13
2022-11-25T10:55:24.151Z,98252.66
2022-11-25T10:57:52.101Z,98256.78
2022-11-25T11:00:30.600Z,98257.22
2022-11-25T11:03:02.773Z,98267.06
2022-11-25T11:05:31.976Z,98269.81
2022-11-25T11:08:21.554Z,98266.09
2022-11-25T11:11:11.315Z,98260.47
2022-11-25T11:13:39.292Z,98261.38
2022-11-25T11:16:24.872Z,98260.84
2022-11-25T11:18:55.439Z,98260.09
2022-11-25T11:21:26.259Z,98257.00
2022-11-25T11:23:55.580Z,98253.22
2022-11-25T11:26:32.694Z,98264.03
2022-11-25T11:29:03.706Z,98260.34
2022-11-25T11:31:36.259Z,98266.66
2022-11-25T11:34:25.701Z,98264.88
2022-11-25T11:37:11.657Z,98267.13
2022-11-25T11:40:00.202Z,98266.28
2022-11-25T11:42:40.251Z,98266.66
2022-11-25T11:45:23.973Z,98263.63
2022-11-25T11:48:05.361Z,98273.41
2022-11-25T11:50:39.785Z,98270.41
2022-11-25T11:53:12.391Z,98270.34
2022-11-25T11:56:33.476Z,98274.69
2022-11-25T11:59:02.710Z,98280.19
2022-11-25T12:01:42.604Z,98273.47
2022-11-25T12:04:20.048Z,98274.25
2022-11-25T12:07:03.447Z,98276.50
2022-11-25T12:09:33.526Z,98276.28
2022-11-25T12:12:05.828Z,98275.94
2022-11-25T12:14:41.138Z,98283.38
2022-11-25T12:17:14.817Z,98274.28
2022-11-25T12:19:50.155Z,98272.44
2022-11-25T12:22:26.575Z,98275.16
2022-11-25T12:25:02.821Z,98261.56
2022-11-25T12:27:36.298Z,98263.25
2022-11-25T12:30:07.282Z,98265.53
2022-11-25T12:33:00.009Z,98262.53
2022-11-25T12:35:37.865Z,98262.66
2022-11-25T12:38:22.174Z,98278.84
2022-11-25T12:40:58.131Z,98276.97
2022-11-25T12:43:34.544Z,98278.59
2022-11-25T12:46:11.520Z,98280.03
2022-11-25T12:48:44.961Z,98277.81
2022-11-25T12:51:29.692Z,98269.47
2022-11-25T12:54:11.857Z,98281.44
2022-11-25T12:57:03.732Z,98283.34
2022-11-25T13:00:17.539Z,98291.03
2022-11-25T13:03:10.730Z,98292.06
2022-11-25T13:06:01.014Z,98295.16
2022-11-25T13:08:45.408Z,98296.34
2022-11-25T13:11:33.482Z,98295.34
2022-11-25T13:14:15.087Z,98295.78
2022-11-25T13:16:47.059Z,98304.34
2022-11-25T13:19:17.918Z,98309.13
2022-11-25T13:21:58.058Z,98320.84
2022-11-25T13:24:33.758Z,98312.97
2022-11-25T13:27:05.170Z,98323.78
2022-11-25T13:30:03.819Z,98325.06
2022-11-25T13:32:49.376Z,98328.16
2022-11-25T13:35:51.300Z,98343.66
2022-11-25T13:39:05.545Z,98341.78
2022-11-25T13:41:46.412Z,98353.03
2022-11-25T13:44:25.307Z,98344.09
2022-11-25T13:46:54.663Z,98353.09
2022-11-25T13:49:32.322Z,98353.09
2022-11-25T13:52:03.087Z,98355.47
2022-11-25T13:54:36.508Z,98356.75
2022-11-25T13:57:27.683Z,98348.78
2022-11-25T14:00:00.603Z,98358.09
2022-11-25T14:02:35.316Z,98358.56
2022-11-25T14:05:27.245Z,98361.72
2022-11-25T14:08:10.589Z,98364.16
2022-11-25T14:10:46.735Z,98373.13
2022-11-25T14:13:45.921Z,98374.22
2022-11-25T14:16:41.595Z,98375.84
2022-11-25T14:19:55.347Z,98377.41
2022-11-25T14:22:37.271Z,98380.31
2022-11-25T14:25:17.465Z,98379.03
2022-11-25T14:27:48.251Z,98391.19
2022-11-25T14:30:17.551Z,98385.44
2022-11-25T14:32:56.019Z,98382.22
2022-11-25T14:35:28.064Z,98394.22
2022-11-25T14:38:01.391Z,98390.06
2022-11-25T14:40:35.659Z,98400.94
2022-11-25T14:43:06.825Z,98404.31
2022-11-25T14:45:36.406Z,98403.81
2022-11-25T14:48:19.714Z,98401.28
2022-11-25T14:50:57.008Z,98412.28
2022-11-25T14:53:25.953Z,98417.06
2022-11-25T14:55:54.950Z,98417.41
2022-11-25T14:58:23.035Z,98417.41
2022-11-25T15:00:52.396Z,98426.31
2022-11-25T15:03:22.068Z,98416.09
2022-11-25T15:05:57.044Z,98430.16
2022-11-25T15:08:26.352Z,98426.47
2022-11-25T15:10:57.108Z,98431.75
2022-11-25T15:13:33.057Z,98430.97
2022-11-25T15:16:07.715Z,98431.47
2022-11-25T15:18:39.184Z,98429.34
2022-11-25T15:21:07.659Z,98436.25
2022-11-25T15:23:38.825Z,98441.69
2022-11-25T15:26:17.769Z,98437.84
2022-11-25T15:28:46.035Z,98443.28
2022-11-25T15:31:19.850Z,98448.06
2022-11-25T15:33:54.838Z,98447.59
2022-11-25T15:36:23.555Z,98446.47
2022-11-25T15:38:51.448Z,98448.06
2022-11-25T15:41:31.477Z,98453.50
2022-11-25T15:44:02.018Z,98458.31
2022-11-25T15:46:31.625Z,98461.03
2022-11-25T15:49:04.052Z,98469.81
2022-11-25T15:51:36.391Z,98478.44
2022-11-25T15:54:08.741Z,98476.69
2022-11-25T15:56:39.973Z,98470.44
2022-11-25T15:59:39.565Z,98481.31
2022-11-25T16:02:32.860Z,98482.28
2022-11-25T16:05:27.055Z,98481.00
2022-11-25T16:08:16.795Z,98486.75
2022-11-25T16:10:52.876Z,98492.19
2022-11-25T16:13:35.418Z,98496.19
2022-11-25T16:16:15.241Z,98494.75
2022-11-25T16:18:51.401Z,98505.31
2022-11-25T16:21:23.452Z,98498.44
2022-11-25T16:23:54.829Z,98510.75
2022-11-25T16:26:29.155Z,98504.97
2022-11-25T16:28:58.748Z,98506.94
2022-11-25T16:31:27.319Z,98508.50
2022-11-25T16:33:56.922Z,98513.94
2022-11-25T16:36:25.948Z,98511.06
2022-11-25T16:38:54.657Z,98524.16
2022-11-25T16:41:24.894Z,98514.91
2022-11-25T16:43:52.787Z,98523.88
2022-11-25T16:46:21.430Z,98527.22
2022-11-25T16:48:49.191Z,98521.44
2022-11-25T16:51:18.680Z,98519.06
2022-11-25T16:53:48.535Z,98526.41
2022-11-25T16:56:18.918Z,98529.47
2022-11-25T16:58:46.873Z,98531.69
2022-11-25T17:01:17.870Z,98539.53
2022-11-25T17:03:45.532Z,98551.34
2022-11-25T17:06:22.219Z,98549.75
2022-11-25T17:08:52.054Z,98560.47
2022-11-25T17:11:24.892Z,98561.59
2022-11-25T17:13:53.754Z,98563.81
2022-11-25T17:16:24.209Z,98560.00
2022-11-25T17:18:54.354Z,98567.50
2022-11-25T17:21:26.710Z,98573.09
2022-11-25T17:23:59.230Z,98571.00
2022-11-25T17:26:36.530Z,98571.50
2022-11-25T17:29:07.459Z,98576.00
2022-11-25T17:31:38.479Z,98578.84
2022-11-25T17:34:06.327Z,98583.31
2022-11-25T17:36:34.007Z,98598.66
2022-11-25T17:39:03.164Z,98593.22
2022-11-25T17:41:34.221Z,98603.13
2022-11-25T17:44:04.578Z,98600.56
2022-11-25T17:46:32.224Z,98604.41
2022-11-25T17:49:00.425Z,98608.56
2022-11-25T17:51:28.224Z,98605.38
2022-11-25T17:53:55.970Z,98608.84
2022-11-25T17:56:28.822Z,98614.91
2022-11-25T17:58:58.857Z,98612.34
2022-11-25T18:01:26.999Z,98612.97
2022-11-25T18:03:54.677Z,98620.63
2022-11-25T18:06:23.201Z,98628.78
2022-11-25T18:08:50.914Z,98623.22
2022-11-25T18:11:22.939Z,98635.03
2022-11-25T18:13:52.047Z,98628.66
2022-11-25T18:16:20.845Z,98627.84
2022-11-25T18:18:48.671Z,98639.66
2022-11-25T18:21:16.389Z,98645.28
2022-11-25T18:23:44.153Z,98650.38
2022-11-25T18:26:13.193Z,98657.56
2022-11-25T18:28:41.020Z,98657.41
2022-11-25T18:31:12.865Z,98661.56
2022-11-25T18:33:41.697Z,98663.19
2022-11-25T18:36:13.841Z,98659.34
2022-11-25T18:38:41.932Z,98661.94
2022-11-25T18:41:20.255Z,98666.41
2022-11-25T18:43:48.097Z,98668.13
2022-11-25T18:46:17.225Z,98668.78
2022-11-25T18:48:44.979Z,98674.53
2022-11-25T18:51:14.329Z,98676.91
2022-11-25T18:53:42.138Z,98691.63
2022-11-25T18:56:17.676Z,98693.84
2022-11-25T18:58:51.644Z,98696.06
2022-11-25T19:01:23.614Z,98687.88
2022-11-25T19:03:51.362Z,98692.31
2022-11-25T19:06:19.136Z,98693.59
2022-11-25T19:08:47.029Z,98702.66
2022-11-25T19:11:18.853Z,98713.19
2022-11-25T19:13:50.835Z,98717.63
2022-11-25T19:16:22.549Z,98718.22
2022-11-25T19:18:50.657Z,98728.91
2022-11-25T19:21:20.757Z,98735.88
2022-11-25T19:23:48.925Z,98740.63
2022-11-25T19:26:18.778Z,98745.88
2022-11-25T19:28:49.491Z,98746.47
2022-11-25T19:31:22.133Z,98765.78
2022-11-25T19:33:52.244Z,98763.25
2022-11-25T19:36:24.123Z,98764.75
2022-11-25T19:38:52.495Z,98770.69
2022-11-25T19:41:20.803Z,98775.59
2022-11-25T19:43:48.540Z,98783.63
2022-11-25T19:46:30.009Z,98796.28
2022-11-25T19:49:03.558Z,98795.28
2022-11-25T19:51:33.590Z,98798.94
2022-11-25T19:54:01.287Z,98797.31
2022-11-25T19:56:28.987Z,98802.13
2022-11-25T19:58:57.679Z,98804.34
2022-11-25T20:01:32.897Z,98807.56
2022-11-25T20:04:02.215Z,98806.75
2022-11-25T20:06:31.292Z,98814.78
2022-11-25T20:09:05.461Z,98818.28
2022-11-25T20:11:36.731Z,98824.81
2022-11-25T20:14:05.386Z,98831.84
2022-11-25T20:16:37.331Z,98832.84
2022-11-25T20:19:06.985Z,98842.31
2022-11-25T20:21:37.624Z,98839.28
2022-11-25T20:24:12.766Z,98837.06
2022-11-25T20:26:45.839Z,98836.06
2022-11-25T20:29:17.178Z,98838.91
2022-11-25T20:31:46.434Z,98857.41
2022-11-25T20:34:14.683Z,98858.63
2022-11-25T20:36:44.434Z,98851.59
2022-11-25T20:39:18.421Z,98856.59
2022-11-25T20:41:49.543Z,98855.50
2022-11-25T20:44:19.872Z,98855.19
2022-11-25T20:46:49.189Z,98859.50
2022-11-25T20:49:22.862Z,98862.22
2022-11-25T20:51:51.299Z,98865.44
2022-11-25T20:54:19.265Z,98868.03
2022-11-25T20:56:47.001Z,98875.59
2022-11-25T20:59:21.711Z,98876.75
2022-11-25T21:01:52.771Z,98881.56
2022-11-25T21:04:22.067Z,98886.31
2022-11-25T21:06:49.858Z,98891.44
2022-11-25T21:09:20.852Z,98882.47
2022-11-25T21:11:49.284Z,98884.53
2022-11-25T21:14:19.068Z,98886.56
2022-11-25T21:16:47.390Z,98897.81
2022-11-25T21:19:16.774Z,98907.50
2022-11-25T21:21:47.143Z,98905.69
2022-11-25T21:24:27.992Z,98915.13
2022-11-25T21:26:57.517Z,98916.25
2022-11-25T21:29:25.513Z,98919.47
2022-11-25T21:31:53.356Z,98921.88
2022-11-25T21:34:22.585Z,98921.06
2022-11-25T21:36:54.554Z,98927.59
2022-11-25T21:39:29.279Z,98927.59
2022-11-25T21:41:59.491Z,98926.25
2022-11-25T21:44:31.857Z,98928.88
2022-11-25T21:46:59.708Z,98937.03
2022-11-25T21:49:28.976Z,98937.72
2022-11-25T21:51:56.719Z,98943.25
2022-11-25T21:54:24.457Z,98947.28
2022-11-25T21:56:52.463Z,98950.50
2022-11-25T21:59:21.552Z,98951.09
2022-11-25T22:01:49.599Z,98944.66
2022-11-25T22:04:19.629Z,98952.31
2022-11-25T22:06:49.293Z,98952.81
2022-11-25T22:09:17.167Z,98948.19
2022-11-25T22:11:47.398Z,98954.03
2022-11-25T22:14:23.714Z,98965.19
2022-11-25T22:16:51.638Z,98962.97
2022-11-25T22:19:21.604Z,98956.91
2022-11-25T22:21:50.698Z,98963.34
2022-11-25T22:24:20.302Z,98954.09
2022-11-25T22:26:54.624Z,98959.13
2022-11-25T22:29:30.260Z,98957.53
2022-11-25T22:31:58.098Z,98965.69
2022-11-25T22:34:26.634Z,98962.63
2022-11-25T22:36:55.613Z,98972.22
2022-11-25T22:39:24.781Z,98976.41
2022-11-25T22:41:55.904Z,98973.31
2022-11-25T22:44:28.277Z,98977.84
2022-11-25T22:46:56.187Z,98974.63
2022-11-25T22:49:37.544Z,98987.09
2022-11-25T22:52:11.583Z,98994.13
2022-11-25T22:54:39.463Z,98990.81
2022-11-25T22:57:08.997Z,98999.56
2022-11-25T22:59:36.754Z,98996.94
2022-11-25T23:02:04.884Z,99001.41
2022-11-25T23:04:32.819Z,99000.59
2022-11-25T23:07:00.890Z,99006.41
2022-11-25T23:09:33.067Z,99010.81
2022-11-25T23:12:00.770Z,99017.88
2022-11-25T23:14:28.507Z,99018.97
2022-11-25T23:16:56.314Z,99019.47
2022-11-25T23:19:24.111Z,99015.16
2022-11-25T23:21:51.809Z,99018.28
2022-11-25T23:24:19.586Z,99024.50
2022-11-25T23:26:48.597Z,99016.88
2022-11-25T23:29:16.240Z,99016.66
2022-11-25T23:31:44.046Z,99031.94
2022-11-25T23:34:13.749Z,99021.28
2022-11-25T23:36:45.637Z,99023.69
2022-11-25T23:39:20.009Z,99017.88
2022-11-25T23:41:49.919Z,99021.28
2022-11-25T23:44:24.525Z,99021.16
2022-11-25T23:46:52.773Z,99016.47
2022-11-25T23:49:25.031Z,99023.00
2022-11-25T23:51:55.905Z,99023.28
2022-11-25T23:54:30.727Z,99023.06
2022-11-25T23:57:02.021Z,99033.53
2022-11-25T23:59:31.250Z,99030.91
